Time;durP1;ratioP1;P1;durP2;ratioP2;P2;SDS_P1;SDS_P2;PMS_P1;PMS_P2;Temp;Humidity;BMP_temperature;BMP_pressure;BME280_temperature;BME280_humidity;BME280_pressure;Samples;Min_cycle;Max_cycle;Signal;HPM_P1;HPM_P2
2023/03/22 00:00:44;;;;;;;20.17;16.50;;;12.60;99.90;;;;;;5073479;28;20434;-46
2023/03/22 00:03:11;;;;;;;22.40;18.40;;;12.00;99.90;;;;;;5073927;28;20476;-47
2023/03/22 00:05:38;;;;;;;22.03;18.40;;;12.20;99.90;;;;;;5056311;28;20448;-48
2023/03/22 00:08:06;;;;;;;21.17;16.43;;;12.40;99.90;;;;;;5073606;28;20475;-49
2023/03/22 00:10:36;;;;;;;20.17;17.20;;;12.50;99.90;;;;;;5074155;28;21002;-47
2023/03/22 00:13:03;;;;;;;22.47;17.60;;;12.50;99.90;;;;;;5074225;28;20456;-48
2023/03/22 00:15:30;;;;;;;18.40;16.43;;;12.30;99.90;;;;;;5073967;28;20787;-47
2023/03/22 00:17:57;;;;;;;27.80;18.77;;;12.20;99.90;;;;;;5073776;28;20522;-47
2023/03/22 00:20:24;;;;;;;18.70;15.57;;;12.20;99.90;;;;;;5073512;28;20433;-47
2023/03/22 00:22:51;;;;;;;19.90;17.67;;;12.30;99.90;;;;;;5073979;28;20504;-48
2023/03/22 00:25:18;;;;;;;21.50;16.33;;;12.40;99.90;;;;;;5073692;28;20451;-48
2023/03/22 00:27:46;;;;;;;21.80;16.57;;;12.30;99.90;;;;;;5055708;28;20445;-47
2023/03/22 00:30:13;;;;;;;21.17;17.07;;;12.30;99.90;;;;;;5073062;28;20816;-47
2023/03/22 00:32:41;;;;;;;22.20;16.50;;;12.20;99.90;;;;;;5055629;28;20487;-48
2023/03/22 00:35:09;;;;;;;20.50;17.60;;;12.20;99.90;;;;;;5055536;28;20489;-48
2023/03/22 00:37:37;;;;;;;21.93;17.57;;;12.10;99.90;;;;;;5073374;28;20415;-48
2023/03/22 00:40:07;;;;;;;25.23;19.20;;;11.70;99.90;;;;;;5073194;28;20414;-47
2023/03/22 00:42:35;;;;;;;19.87;17.67;;;12.20;99.90;;;;;;5073428;28;20529;-47
2023/03/22 00:45:04;;;;;;;27.70;20.23;;;12.10;99.90;;;;;;5055404;28;20474;-47
2023/03/22 00:47:30;;;;;;;29.60;22.27;;;12.00;99.90;;;;;;5055292;28;20546;-47
2023/03/22 00:49:57;;;;;;;24.23;20.73;;;11.70;99.90;;;;;;5073275;28;20475;-47
2023/03/22 00:52:25;;;;;;;26.03;19.60;;;11.80;99.90;;;;;;5054980;28;20476;-46
2023/03/22 00:54:51;;;;;;;24.60;22.00;;;12.30;99.90;;;;;;5073202;28;20449;-47
2023/03/22 00:57:19;;;;;;;23.93;19.53;;;11.90;99.90;;;;;;5055252;28;20446;-46
2023/03/22 00:59:46;;;;;;;26.03;17.70;;;12.10;99.90;;;;;;5054803;28;20424;-47
2023/03/22 01:02:14;;;;;;;22.70;18.97;;;11.70;99.90;;;;;;5072987;28;20839;-46
2023/03/22 01:04:44;;;;;;;26.90;18.87;;;11.90;99.90;;;;;;5072955;28;20455;-47
2023/03/22 01:07:16;;;;;;;23.37;18.00;;;12.30;99.90;;;;;;5054976;28;20478;-46
2023/03/22 01:09:43;;;;;;;22.83;19.00;;;12.10;99.90;;;;;;5054775;28;20462;-47
2023/03/22 01:12:14;;;;;;;22.50;16.50;;;12.10;99.90;;;;;;5072856;28;20489;-46
2023/03/22 01:14:41;;;;;;;21.93;16.87;;;12.00;99.90;;;;;;5055234;28;20427;-46
2023/03/22 01:17:08;;;;;;;17.53;15.73;;;11.60;99.90;;;;;;5055128;28;20455;-47
2023/03/22 01:19:37;;;;;;;23.20;17.40;;;11.90;99.90;;;;;;5054472;28;20415;-47
2023/03/22 01:22:05;;;;;;;23.70;17.60;;;11.90;99.90;;;;;;5055007;28;20442;-47
2023/03/22 01:24:32;;;;;;;24.10;17.90;;;11.70;99.90;;;;;;5055224;28;20453;-47
2023/03/22 01:26:59;;;;;;;19.23;17.07;;;11.60;99.90;;;;;;5054872;28;20450;-47
2023/03/22 01:29:26;;;;;;;19.70;15.90;;;11.90;99.90;;;;;;5054404;28;20441;-46
2023/03/22 01:31:53;;;;;;;21.67;18.50;;;12.10;99.90;;;;;;5055385;28;20422;-47
2023/03/22 01:34:21;;;;;;;19.17;16.07;;;12.20;99.90;;;;;;5054931;28;20456;-47
2023/03/22 01:36:49;;;;;;;21.80;16.73;;;11.60;99.90;;;;;;5054834;28;20460;-46
2023/03/22 01:39:16;;;;;;;22.40;17.27;;;12.10;99.90;;;;;;5054497;28;20535;-48
2023/03/22 01:41:45;;;;;;;20.40;17.33;;;12.40;99.90;;;;;;5056726;28;20455;-48
2023/03/22 01:44:17;;;;;;;24.10;18.73;;;12.10;99.90;;;;;;5056913;28;20483;-48
2023/03/22 01:46:45;;;;;;;20.57;18.40;;;12.00;99.90;;;;;;5054735;28;20453;-47
2023/03/22 01:49:16;;;;;;;18.80;16.30;;;11.70;99.90;;;;;;5071994;28;20469;-47
2023/03/22 01:51:46;;;;;;;19.43;16.77;;;12.10;99.90;;;;;;5054333;28;20955;-47
2023/03/22 01:54:43;;;;;;;24.27;18.93;;;11.70;99.90;;;;;;5062378;28;20453;-48
2023/03/22 01:57:32;;;;;;;21.50;16.63;;;12.00;99.90;;;;;;5072609;28;20422;-47
2023/03/22 02:00:02;;;;;;;26.13;17.80;;;12.20;99.90;;;;;;5054013;28;20473;-46
2023/03/22 02:02:57;;;;;;;24.03;16.77;;;12.00;99.90;;;;;;5053690;28;21011;-46
2023/03/22 02:05:30;;;;;;;19.10;16.47;;;12.20;99.90;;;;;;5072002;28;20429;-47
2023/03/22 02:07:59;;;;;;;18.70;16.80;;;11.90;99.90;;;;;;5054059;28;20458;-47
2023/03/22 02:10:28;;;;;;;31.23;19.70;;;12.20;99.90;;;;;;5053678;28;20573;-47
2023/03/22 02:13:19;;;;;;;20.53;17.30;;;11.90;99.90;;;;;;5053989;28;20580;-47
2023/03/22 02:16:03;;;;;;;22.20;17.63;;;11.30;99.90;;;;;;5054240;28;20521;-46
2023/03/22 02:19:08;;;;;;;19.67;16.60;;;12.00;99.90;;;;;;5060880;28;20855;-47
2023/03/22 02:21:57;;;;;;;22.03;17.60;;;11.90;99.90;;;;;;5053967;28;20503;-46
2023/03/22 02:25:00;;;;;;;22.37;18.70;;;11.80;99.90;;;;;;5055063;28;20517;-47
2023/03/22 02:27:56;;;;;;;21.97;18.10;;;12.20;99.90;;;;;;5058002;28;20872;-47
2023/03/22 02:30:42;;;;;;;26.00;19.07;;;11.70;99.90;;;;;;5057606;28;20483;-48
2023/03/22 02:33:33;;;;;;;21.97;17.17;;;11.70;99.90;;;;;;5057896;28;20474;-46
2023/03/22 02:36:46;;;;;;;22.03;17.70;;;11.20;99.90;;;;;;5075986;28;20800;-46
2023/03/22 02:39:27;;;;;;;21.53;17.43;;;11.90;99.90;;;;;;5044036;28;20943;-46
2023/03/22 02:42:07;;;;;;;26.57;18.23;;;11.80;99.90;;;;;;5057658;28;20427;-46
2023/03/22 02:44:41;;;;;;;25.67;19.30;;;11.70;99.90;;;;;;5075638;28;20427;-47
2023/03/22 02:47:17;;;;;;;22.80;17.67;;;11.50;99.90;;;;;;5057747;28;20954;-47
2023/03/22 02:49:51;;;;;;;21.10;16.87;;;11.40;99.90;;;;;;5057375;28;21015;-46
2023/03/22 02:52:23;;;;;;;20.17;16.90;;;11.50;99.90;;;;;;5057679;28;20475;-47
2023/03/22 02:54:55;;;;;;;23.00;17.23;;;11.40;99.90;;;;;;5057503;28;20436;-47
2023/03/22 02:57:28;;;;;;;25.30;17.47;;;11.40;99.90;;;;;;5075316;28;20439;-47
2023/03/22 02:59:57;;;;;;;22.53;16.67;;;11.20;99.90;;;;;;5057222;28;20437;-48
2023/03/22 03:02:27;;;;;;;22.37;16.57;;;11.50;99.90;;;;;;5059755;28;20442;-47
2023/03/22 03:04:55;;;;;;;18.80;16.43;;;11.30;99.90;;;;;;5057538;28;20463;-48
2023/03/22 03:07:27;;;;;;;17.20;14.93;;;11.20;99.90;;;;;;5057283;28;20419;-47
2023/03/22 03:09:56;;;;;;;20.03;16.50;;;11.50;99.90;;;;;;5056737;28;20475;-47
2023/03/22 03:12:25;;;;;;;18.90;16.80;;;11.10;99.90;;;;;;5057075;28;21011;-48
2023/03/22 03:14:54;;;;;;;21.73;16.70;;;11.20;99.90;;;;;;5057327;28;20463;-47
2023/03/22 03:17:30;;;;;;;20.93;17.00;;;11.40;99.90;;;;;;5074997;28;20431;-47
2023/03/22 03:20:11;;;;;;;19.03;16.27;;;11.40;99.90;;;;;;5057169;28;20452;-47
2023/03/22 03:22:49;;;;;;;19.83;17.43;;;11.20;99.90;;;;;;5075219;28;20470;-47
2023/03/22 03:25:25;;;;;;;21.27;17.00;;;11.40;99.90;;;;;;5074988;28;20437;-47
2023/03/22 03:27:58;;;;;;;20.50;16.87;;;11.20;99.90;;;;;;5074846;28;20518;-47
2023/03/22 03:30:31;;;;;;;18.63;16.63;;;11.30;99.90;;;;;;5074659;28;20530;-46
2023/03/22 03:33:03;;;;;;;19.50;16.40;;;11.30;99.90;;;;;;5056678;28;20569;-47
2023/03/22 03:35:37;;;;;;;21.60;16.53;;;11.20;99.90;;;;;;5055983;28;20451;-47
2023/03/22 03:38:08;;;;;;;18.70;16.80;;;11.20;99.90;;;;;;5057001;28;20455;-47
2023/03/22 03:40:40;;;;;;;21.50;15.47;;;11.10;99.90;;;;;;5074948;28;20436;-47
2023/03/22 03:43:08;;;;;;;18.03;16.10;;;11.30;99.90;;;;;;5074813;28;20458;-47
2023/03/22 03:45:36;;;;;;;18.93;16.90;;;11.10;99.90;;;;;;5074849;28;20427;-46
2023/03/22 03:48:08;;;;;;;18.87;16.67;;;10.90;99.90;;;;;;5056930;28;20439;-47
2023/03/22 03:50:34;;;;;;;19.97;15.10;;;11.00;99.90;;;;;;5056996;28;21028;-47
2023/03/22 03:53:01;;;;;;;17.83;16.10;;;11.30;99.90;;;;;;5074740;28;20454;-47
2023/03/22 03:55:29;;;;;;;19.50;16.67;;;11.10;99.90;;;;;;5056861;28;20456;-46
2023/03/22 03:57:57;;;;;;;17.33;15.43;;;11.40;99.90;;;;;;5056764;28;20532;-47
2023/03/22 04:00:24;;;;;;;19.20;16.97;;;11.10;99.90;;;;;;5056344;28;20459;-47
2023/03/22 04:03:21;;;;;;;21.33;16.33;;;10.60;99.90;;;;;;5056303;28;20606;-47
2023/03/22 04:06:08;;;;;;;17.63;15.83;;;11.20;99.90;;;;;;5056396;28;20446;-46
2023/03/22 04:08:37;;;;;;;21.57;16.87;;;11.10;99.90;;;;;;5056148;28;20417;-47
2023/03/22 04:11:05;;;;;;;21.73;18.10;;;11.50;99.90;;;;;;5056217;28;20487;-46
2023/03/22 04:13:33;;;;;;;23.27;19.73;;;11.50;99.90;;;;;;5056048;28;20546;-47
2023/03/22 04:16:03;;;;;;;16.60;14.90;;;11.40;99.90;;;;;;5056200;28;20889;-47
2023/03/22 04:18:34;;;;;;;18.30;15.47;;;11.40;99.90;;;;;;5055976;28;20461;-46
2023/03/22 04:21:04;;;;;;;17.23;15.27;;;10.90;99.90;;;;;;5056586;28;20871;-47
2023/03/22 04:23:38;;;;;;;18.10;16.23;;;10.90;99.90;;;;;;5057849;28;20442;-47
2023/03/22 04:26:05;;;;;;;22.23;17.53;;;11.40;99.90;;;;;;5055765;28;20506;-47
2023/03/22 04:28:43;;;;;;;18.10;16.03;;;11.60;99.90;;;;;;5055910;28;20831;-46
2023/03/22 04:31:11;;;;;;;18.93;15.27;;;11.30;99.90;;;;;;5055576;28;21011;-47
2023/03/22 04:33:48;;;;;;;18.40;15.77;;;11.40;99.90;;;;;;5055516;28;20467;-47
2023/03/22 04:36:25;;;;;;;17.90;15.67;;;11.20;99.90;;;;;;5055586;28;20475;-47
2023/03/22 04:39:17;;;;;;;17.43;15.60;;;11.50;99.90;;;;;;5055163;28;20426;-47
2023/03/22 04:41:52;;;;;;;17.50;15.60;;;11.40;99.90;;;;;;5055733;28;20448;-47
2023/03/22 04:44:21;;;;;;;19.90;15.87;;;11.20;99.90;;;;;;5055286;28;20550;-47
2023/03/22 04:46:50;;;;;;;18.60;16.70;;;11.40;99.90;;;;;;5054913;28;20486;-46
2023/03/22 04:49:17;;;;;;;19.27;16.10;;;11.20;99.90;;;;;;5054963;28;20486;-46
2023/03/22 04:51:43;;;;;;;17.90;14.23;;;11.50;99.90;;;;;;5072986;28;20489;-47
2023/03/22 04:54:33;;;;;;;17.63;15.70;;;11.10;99.90;;;;;;5072875;28;20456;-47
2023/03/22 04:57:00;;;;;;;19.23;15.23;;;11.30;99.90;;;;;;5055223;28;20534;-47
2023/03/22 04:59:30;;;;;;;18.07;14.60;;;11.50;99.90;;;;;;5054914;28;20464;-47
2023/03/22 05:04:38;;;;;;;16.00;14.30;;;11.30;99.90;;;;;;5009599;28;20527;-51
2023/03/22 05:07:12;;;;;;;16.37;13.90;;;11.20;99.90;;;;;;5011221;28;20513;-50
2023/03/22 05:09:48;;;;;;;16.67;14.73;;;11.30;99.90;;;;;;5010802;28;20459;-50
2023/03/22 05:12:15;;;;;;;20.97;18.77;;;11.20;99.90;;;;;;5011125;28;20486;-50
2023/03/22 05:14:50;;;;;;;18.50;14.67;;;11.40;99.90;;;;;;5011022;28;20464;-50
2023/03/22 05:17:21;;;;;;;19.67;15.57;;;11.30;99.90;;;;;;4994807;28;20457;-49
2023/03/22 05:19:51;;;;;;;16.17;14.00;;;11.20;99.90;;;;;;5010919;28;20454;-50
2023/03/22 05:22:21;;;;;;;16.67;14.90;;;11.20;99.90;;;;;;4994701;28;20840;-52
2023/03/22 05:24:50;;;;;;;18.67;15.57;;;11.40;99.90;;;;;;4994691;28;20545;-50
2023/03/22 05:27:30;;;;;;;19.60;16.17;;;11.50;99.90;;;;;;5011477;28;20425;-51
2023/03/22 05:30:02;;;;;;;19.77;15.83;;;11.40;99.90;;;;;;4994688;28;20862;-50
2023/03/22 05:32:42;;;;;;;16.97;14.90;;;10.90;99.90;;;;;;4994931;28;20478;-51
2023/03/22 05:35:10;;;;;;;18.87;15.73;;;12.00;99.90;;;;;;5011104;28;21033;-50
2023/03/22 05:37:41;;;;;;;16.80;14.30;;;11.60;99.90;;;;;;4996651;28;20460;-51
2023/03/22 05:40:09;;;;;;;17.37;15.47;;;11.30;99.90;;;;;;5014767;28;20445;-50
2023/03/22 05:42:39;;;;;;;15.70;14.20;;;11.40;99.90;;;;;;5011371;28;20474;-50
2023/03/22 05:45:16;;;;;;;16.70;14.83;;;11.40;99.90;;;;;;5011222;28;20457;-49
2023/03/22 05:47:47;;;;;;;18.23;16.23;;;11.20;99.90;;;;;;5011142;28;20558;-49
2023/03/22 05:50:20;;;;;;;22.30;15.40;;;11.60;99.90;;;;;;4994226;28;20972;-49
2023/03/22 05:52:49;;;;;;;17.03;15.10;;;11.20;99.90;;;;;;5011550;28;20454;-50
2023/03/22 05:55:43;;;;;;;19.87;16.10;;;11.60;99.90;;;;;;5010705;28;20458;-50
2023/03/22 05:58:11;;;;;;;18.13;15.10;;;11.50;99.90;;;;;;4993180;28;20458;-51
2023/03/22 06:00:42;;;;;;;17.27;15.47;;;11.70;99.90;;;;;;4994279;28;20441;-49
2023/03/22 06:03:20;;;;;;;19.33;15.23;;;11.50;99.90;;;;;;5012063;28;20459;-50
2023/03/22 06:05:54;;;;;;;20.10;15.90;;;11.00;99.90;;;;;;4994042;28;20819;-50
2023/03/22 06:08:28;;;;;;;19.63;14.97;;;11.30;99.90;;;;;;5010425;28;20748;-49
2023/03/22 06:10:55;;;;;;;21.60;16.67;;;11.40;99.90;;;;;;5010289;28;20481;-50
2023/03/22 06:13:22;;;;;;;22.13;17.43;;;11.20;99.90;;;;;;5010232;28;20480;-50
2023/03/22 06:15:50;;;;;;;18.10;16.27;;;11.50;99.90;;;;;;4993873;28;20491;-51
2023/03/22 06:18:21;;;;;;;18.70;16.00;;;11.50;99.90;;;;;;4993497;28;20454;-50
2023/03/22 06:20:55;;;;;;;20.30;15.70;;;11.70;99.90;;;;;;5010137;28;20460;-51
2023/03/22 06:23:23;;;;;;;17.97;15.83;;;11.90;99.90;;;;;;5010047;28;20480;-50
2023/03/22 06:25:50;;;;;;;22.30;16.00;;;11.80;99.90;;;;;;5011314;28;20940;-51
2023/03/22 06:28:17;;;;;;;21.23;16.40;;;11.40;99.90;;;;;;5009745;28;20947;-52
2023/03/22 06:30:55;;;;;;;19.03;15.93;;;11.50;99.90;;;;;;4993599;28;20481;-51
2023/03/22 06:33:28;;;;;;;18.90;16.17;;;11.50;99.90;;;;;;4993339;28;20451;-51
2023/03/22 06:36:00;;;;;;;18.90;16.73;;;11.50;99.90;;;;;;5011248;28;20467;-50
2023/03/22 06:38:57;;;;;;;23.13;17.37;;;11.70;99.90;;;;;;4992663;28;20464;-50
2023/03/22 06:41:24;;;;;;;21.80;17.30;;;11.00;99.90;;;;;;4993343;28;20430;-51
2023/03/22 06:43:51;;;;;;;21.53;16.70;;;11.60;99.90;;;;;;4993590;28;20501;-48
2023/03/22 06:46:36;;;;;;;20.93;15.73;;;11.70;99.90;;;;;;4993562;28;20433;-50
2023/03/22 06:49:11;;;;;;;25.40;17.37;;;11.60;99.90;;;;;;4992636;28;20765;-49
2023/03/22 06:51:38;;;;;;;25.00;16.53;;;11.90;99.90;;;;;;5008998;28;20492;-51
2023/03/22 06:54:05;;;;;;;18.50;15.57;;;11.70;99.90;;;;;;5009581;28;20545;-50
2023/03/22 06:56:31;;;;;;;25.80;17.77;;;11.60;99.90;;;;;;5009913;28;20542;-49
2023/03/22 06:59:00;;;;;;;21.70;16.80;;;11.70;99.90;;;;;;5009200;28;20534;-52
2023/03/22 07:01:27;;;;;;;21.27;17.17;;;11.60;99.90;;;;;;4993315;28;20456;-49
2023/03/22 07:03:55;;;;;;;24.17;16.27;;;11.30;99.90;;;;;;5009209;28;20488;-49
2023/03/22 07:06:23;;;;;;;23.57;17.60;;;11.80;99.90;;;;;;4993579;28;20558;-50
2023/03/22 07:08:51;;;;;;;22.50;16.57;;;12.00;99.90;;;;;;4994476;28;20814;-50
2023/03/22 07:11:21;;;;;;;18.67;15.10;;;12.20;99.90;;;;;;5014660;28;20526;-50
2023/03/22 07:13:55;;;;;;;23.50;17.17;;;11.40;99.90;;;;;;5012921;28;20481;-51
2023/03/22 07:16:22;;;;;;;21.20;16.10;;;12.00;99.90;;;;;;5013085;28;20985;-52
2023/03/22 07:18:57;;;;;;;23.23;15.73;;;12.30;99.90;;;;;;5012513;28;20474;-50
2023/03/22 07:21:24;;;;;;;23.53;16.30;;;11.90;99.90;;;;;;4996742;28;20455;-48
2023/03/22 07:23:55;;;;;;;18.90;15.23;;;12.10;99.90;;;;;;5012826;28;21028;-49
2023/03/22 07:26:25;;;;;;;20.23;15.40;;;12.60;99.90;;;;;;4996725;28;20482;-50
2023/03/22 07:28:54;;;;;;;19.80;17.07;;;12.00;99.90;;;;;;5012903;28;20459;-49
2023/03/22 07:31:28;;;;;;;17.90;15.77;;;12.10;99.90;;;;;;5013094;28;20493;-51
2023/03/22 07:34:02;;;;;;;19.47;15.23;;;12.50;99.90;;;;;;4996110;28;21024;-50
2023/03/22 07:36:32;;;;;;;21.60;15.57;;;12.70;99.90;;;;;;5012566;28;20464;-50
2023/03/22 07:38:59;;;;;;;18.50;16.17;;;12.80;99.90;;;;;;5012583;28;20560;-51
2023/03/22 07:41:33;;;;;;;22.33;15.93;;;12.00;99.90;;;;;;4996468;28;20946;-48
2023/03/22 07:44:21;;;;;;;22.60;15.70;;;12.50;99.90;;;;;;5013085;28;20552;-49
2023/03/22 07:47:25;;;;;;;27.73;16.50;;;12.40;99.90;;;;;;5013819;28;20430;-49
2023/03/22 07:50:10;;;;;;;21.80;18.87;;;12.90;99.90;;;;;;5012425;28;20463;-49
2023/03/22 07:52:37;;;;;;;24.50;18.40;;;12.50;99.90;;;;;;4996048;28;20509;-48
2023/03/22 07:55:04;;;;;;;23.23;19.70;;;12.80;99.90;;;;;;5012382;28;20550;-49
2023/03/22 07:57:31;;;;;;;27.10;20.73;;;12.70;99.90;;;;;;5013630;28;20435;-50
2023/03/22 08:00:00;;;;;;;22.33;17.73;;;13.00;99.90;;;;;;5013472;28;20458;-50
2023/03/22 08:02:44;;;;;;;26.63;20.70;;;12.80;99.90;;;;;;5013422;28;20473;-49
2023/03/22 08:05:14;;;;;;;27.90;17.57;;;13.00;99.90;;;;;;4995851;28;20531;-50
2023/03/22 08:07:43;;;;;;;22.00;16.33;;;13.00;99.90;;;;;;4996256;28;20467;-50
2023/03/22 08:10:11;;;;;;;19.40;15.50;;;13.30;99.90;;;;;;5011919;28;20454;-49
2023/03/22 08:12:38;;;;;;;15.90;13.70;;;13.50;99.90;;;;;;4995698;28;20586;-50
2023/03/22 08:15:17;;;;;;;23.30;15.10;;;13.50;99.90;;;;;;5011535;28;20459;-49
2023/03/22 08:17:45;;;;;;;23.13;15.60;;;13.70;99.90;;;;;;4995854;28;20788;-49
2023/03/22 08:20:19;;;;;;;20.57;14.33;;;13.50;99.90;;;;;;4994369;28;20477;-50
2023/03/22 08:22:51;;;;;;;19.03;14.47;;;13.80;99.90;;;;;;5012018;28;21007;-49
2023/03/22 08:25:28;;;;;;;18.77;14.73;;;13.70;99.90;;;;;;5013489;28;20447;-50
2023/03/22 08:28:00;;;;;;;21.80;14.00;;;14.00;99.90;;;;;;4995443;28;20427;-49
2023/03/22 08:30:27;;;;;;;21.40;14.60;;;13.70;99.90;;;;;;5011725;28;20487;-51
2023/03/22 08:32:54;;;;;;;15.97;13.83;;;13.90;99.90;;;;;;4995502;28;21006;-50
2023/03/22 08:35:22;;;;;;;18.07;14.80;;;14.00;99.90;;;;;;5013194;28;20447;-50
2023/03/22 08:37:53;;;;;;;20.00;14.30;;;13.40;99.90;;;;;;4995188;28;20467;-50
2023/03/22 08:40:21;;;;;;;23.47;14.00;;;13.80;99.90;;;;;;5011101;28;20445;-51
2023/03/22 08:42:53;;;;;;;15.30;13.70;;;14.20;99.90;;;;;;5011943;28;20476;-49
2023/03/22 08:45:20;;;;;;;19.20;14.23;;;13.70;99.90;;;;;;4994972;28;20471;-49
2023/03/22 08:47:53;;;;;;;14.97;12.07;;;14.40;99.90;;;;;;5011345;28;20453;-50
2023/03/22 08:50:24;;;;;;;22.60;16.30;;;14.50;99.90;;;;;;5011241;28;20461;-51
2023/03/22 08:53:00;;;;;;;16.67;12.50;;;14.20;99.90;;;;;;5011357;28;21059;-48
2023/03/22 08:55:34;;;;;;;21.70;14.90;;;14.50;99.90;;;;;;5010834;28;20454;-49
2023/03/22 08:58:13;;;;;;;16.57;12.40;;;14.50;99.90;;;;;;5012559;28;20451;-49
2023/03/22 09:00:49;;;;;;;16.33;13.50;;;15.00;99.90;;;;;;4995026;28;20455;-50
2023/03/22 09:03:23;;;;;;;15.20;13.10;;;15.10;99.90;;;;;;5011074;28;20472;-50
2023/03/22 09:05:51;;;;;;;16.03;13.67;;;14.50;99.90;;;;;;5011495;28;20450;-48
2023/03/22 09:08:18;;;;;;;19.33;12.43;;;14.90;99.90;;;;;;5010487;28;20448;-49
2023/03/22 09:10:50;;;;;;;16.53;12.90;;;14.50;99.90;;;;;;5010586;28;20445;-49
2023/03/22 09:13:17;;;;;;;18.03;13.50;;;14.90;99.90;;;;;;4994880;28;20515;-48
2023/03/22 09:15:51;;;;;;;14.17;12.00;;;15.00;99.90;;;;;;5011322;28;20476;-50
2023/03/22 09:18:26;;;;;;;17.30;11.83;;;14.50;99.90;;;;;;5010907;28;20526;-49
2023/03/22 09:20:59;;;;;;;18.80;13.33;;;14.90;99.90;;;;;;5010971;28;20548;-49
2023/03/22 09:23:32;;;;;;;24.53;14.03;;;14.80;99.90;;;;;;5010981;28;20512;-49
2023/03/22 09:26:01;;;;;;;17.43;14.40;;;15.60;99.90;;;;;;4994571;28;20468;-49
2023/03/22 09:28:28;;;;;;;14.93;11.97;;;14.70;99.90;;;;;;5010735;28;20539;-50
2023/03/22 09:31:01;;;;;;;16.43;12.90;;;15.60;99.90;;;;;;5010429;28;20445;-50
2023/03/22 09:33:28;;;;;;;12.53;11.33;;;15.60;99.90;;;;;;5010260;28;20479;-51
2023/03/22 09:35:55;;;;;;;23.10;11.70;;;15.00;99.90;;;;;;5010628;28;20449;-48
2023/03/22 09:38:26;;;;;;;14.37;12.50;;;15.50;99.90;;;;;;5010673;28;20460;-48
2023/03/22 09:40:59;;;;;;;12.53;11.20;;;15.30;99.90;;;;;;5012179;28;20498;-48
2023/03/22 09:43:28;;;;;;;13.87;11.53;;;16.00;99.90;;;;;;4994438;28;20468;-50
2023/03/22 09:45:56;;;;;;;18.30;12.07;;;15.80;99.90;;;;;;5010820;28;20457;-50
2023/03/22 09:48:28;;;;;;;15.37;12.13;;;16.20;99.90;;;;;;5011649;28;20450;-50
2023/03/22 09:50:56;;;;;;;14.73;11.23;;;16.00;99.90;;;;;;5012166;28;20459;-49
2023/03/22 09:53:26;;;;;;;17.13;11.97;;;16.20;99.90;;;;;;5011571;28;20490;-50
2023/03/22 09:55:56;;;;;;;16.43;12.43;;;16.30;99.90;;;;;;5010849;28;20461;-51
2023/03/22 09:58:27;;;;;;;17.20;11.23;;;16.40;99.90;;;;;;5011098;28;20434;-48
2023/03/22 10:00:58;;;;;;;16.90;11.43;;;16.40;99.90;;;;;;5011744;28;20281;-50
2023/03/22 10:03:45;;;;;;;13.87;10.60;;;16.40;99.90;;;;;;5011328;28;20465;-50
2023/03/22 10:06:17;;;;;;;12.13;10.87;;;16.40;99.90;;;;;;5011564;28;21030;-51
2023/03/22 10:08:59;;;;;;;12.17;10.83;;;16.10;99.90;;;;;;5011557;28;20450;-50
2023/03/22 10:11:39;;;;;;;10.53;9.13;;;16.20;99.90;;;;;;5011678;28;20434;-49
2023/03/22 10:14:22;;;;;;;11.73;10.52;;;16.10;99.90;;;;;;5011082;28;20422;-49
2023/03/22 10:16:52;;;;;;;15.70;11.20;;;16.90;99.90;;;;;;5011765;28;20214;-52
2023/03/22 10:19:23;;;;;;;13.73;10.50;;;16.50;99.90;;;;;;5011206;28;20476;-48
2023/03/22 10:21:51;;;;;;;11.70;10.07;;;16.90;99.90;;;;;;5010581;28;20429;-52
2023/03/22 10:24:23;;;;;;;16.30;9.50;;;16.80;99.90;;;;;;5008457;28;20855;-51
2023/03/22 10:26:51;;;;;;;12.10;9.20;;;16.80;99.90;;;;;;5011552;28;20457;-50
2023/03/22 10:29:23;;;;;;;14.77;10.00;;;17.00;99.90;;;;;;5011109;28;20448;-53
2023/03/22 10:31:50;;;;;;;17.50;14.57;;;17.10;99.90;;;;;;5011303;28;20487;-50
2023/03/22 10:34:21;;;;;;;17.67;10.17;;;17.00;99.90;;;;;;5011514;28;20813;-49
2023/03/22 10:36:51;;;;;;;13.50;10.00;;;17.30;99.90;;;;;;5011188;28;20451;-50
2023/03/22 10:39:27;;;;;;;12.43;10.05;;;17.20;99.90;;;;;;5010653;28;20441;-51
2023/03/22 10:41:54;;;;;;;11.70;9.00;;;17.10;99.90;;;;;;4994869;28;20221;-51
2023/03/22 10:44:24;;;;;;;12.32;9.07;;;17.30;99.90;;;;;;5013907;28;20470;-50
2023/03/22 10:46:52;;;;;;;13.57;9.30;;;17.00;99.90;;;;;;5014893;28;20431;-50
2023/03/22 10:49:24;;;;;;;14.73;9.27;;;18.10;99.90;;;;;;5014015;28;20518;-50
2023/03/22 10:51:56;;;;;;;11.00;9.50;;;18.20;99.40;;;;;;5014441;28;21012;-51
2023/03/22 10:54:25;;;;;;;13.45;9.40;;;18.40;99.10;;;;;;5014786;28;20484;-50
2023/03/22 10:56:52;;;;;;;12.43;8.60;;;17.90;98.90;;;;;;5015154;28;20251;-51
2023/03/22 10:59:42;;;;;;;9.60;8.60;;;18.10;98.90;;;;;;5014293;28;20906;-50
2023/03/22 11:02:21;;;;;;;11.23;8.53;;;17.60;98.70;;;;;;5014809;28;20438;-50
2023/03/22 11:04:49;;;;;;;12.33;8.53;;;17.70;99.10;;;;;;5057312;22;20502;-51
2023/03/22 11:07:28;;;;;;;8.50;7.60;;;17.60;99.20;;;;;;5054890;28;20455;-51
2023/03/22 11:10:31;;;;;;;9.87;7.30;;;17.20;98.60;;;;;;5054628;28;20447;-51
2023/03/22 11:13:13;;;;;;;12.50;7.60;;;17.50;98.40;;;;;;5055114;28;20534;-50
2023/03/22 11:15:42;;;;;;;16.17;14.43;;;17.30;98.50;;;;;;5074782;28;20404;-50
2023/03/22 11:18:14;;;;;;;9.40;8.10;;;17.50;98.80;;;;;;5056212;28;20432;-49
2023/03/22 11:20:42;;;;;;;7.90;6.37;;;17.40;98.40;;;;;;5074875;28;20478;-51
2023/03/22 11:23:12;;;;;;;7.07;6.37;;;17.60;98.00;;;;;;5074413;28;20912;-51
2023/03/22 11:25:46;;;;;;;8.60;5.90;;;17.70;98.10;;;;;;5074642;28;20437;-52
2023/03/22 11:28:17;;;;;;;9.33;6.90;;;17.80;97.50;;;;;;5074129;28;20895;-50
2023/03/22 11:31:04;;;;;;;9.88;7.40;;;17.70;97.50;;;;;;5073058;28;20433;-50
2023/03/22 11:33:31;;;;;;;12.40;7.32;;;17.90;96.30;;;;;;5072940;28;20473;-52
2023/03/22 11:35:59;;;;;;;8.03;6.67;;;18.50;96.10;;;;;;5074343;28;20214;-50
2023/03/22 11:38:29;;;;;;;8.97;7.00;;;18.30;96.50;;;;;;5074038;28;20820;-51
2023/03/22 11:41:01;;;;;;;11.63;7.50;;;18.00;96.60;;;;;;5074353;28;20520;-51
2023/03/22 11:43:33;;;;;;;9.60;6.60;;;17.80;96.70;;;;;;5074005;28;20559;-51
2023/03/22 11:46:01;;;;;;;8.20;7.30;;;17.50;96.20;;;;;;5073717;28;20441;-52
2023/03/22 11:48:30;;;;;;;7.07;5.87;;;18.10;96.70;;;;;;5056761;28;20480;-52
2023/03/22 11:51:04;;;;;;;7.83;6.37;;;18.30;96.70;;;;;;5073942;28;20434;-51
2023/03/22 11:53:34;;;;;;;8.60;5.37;;;17.80;96.40;;;;;;5073458;28;20492;-52
2023/03/22 11:56:06;;;;;;;6.87;4.70;;;18.10;96.70;;;;;;5072767;28;20432;-51
2023/03/22 11:58:48;;;;;;;8.40;5.40;;;17.70;96.20;;;;;;5073751;28;20421;-51
2023/03/22 12:01:20;;;;;;;6.10;4.50;;;18.20;95.40;;;;;;5070802;28;20937;-51
2023/03/22 12:03:51;;;;;;;10.30;4.57;;;18.00;95.60;;;;;;5073820;28;20504;-50
2023/03/22 12:06:22;;;;;;;13.23;5.40;;;18.30;95.40;;;;;;5073664;28;20434;-51
2023/03/22 12:08:53;;;;;;;6.00;4.53;;;18.10;95.00;;;;;;5073189;28;20945;-50
2023/03/22 12:11:27;;;;;;;12.30;4.50;;;17.90;94.60;;;;;;5073577;28;20433;-50
2023/03/22 12:13:59;;;;;;;11.20;4.80;;;18.20;94.60;;;;;;5055426;28;20482;-50
2023/03/22 12:16:31;;;;;;;6.50;5.40;;;18.10;94.70;;;;;;5073739;28;20433;-50
2023/03/22 12:19:06;;;;;;;5.60;5.10;;;18.10;94.70;;;;;;5073009;28;20925;-51
2023/03/22 12:21:34;;;;;;;7.80;5.90;;;18.00;94.40;;;;;;5073604;28;20771;-52
2023/03/22 12:24:03;;;;;;;5.70;4.60;;;17.90;94.80;;;;;;5073108;28;20469;-51
2023/03/22 12:26:34;;;;;;;10.73;4.80;;;18.00;94.90;;;;;;5073478;28;20821;-51
2023/03/22 12:29:04;;;;;;;5.87;5.30;;;18.00;94.70;;;;;;5073106;28;20486;-51
2023/03/22 12:31:33;;;;;;;6.90;5.30;;;17.90;94.10;;;;;;5072578;28;20554;-51
2023/03/22 12:34:05;;;;;;;14.23;5.40;;;18.10;92.80;;;;;;5073223;28;20515;-52
2023/03/22 12:36:37;;;;;;;9.30;5.20;;;18.00;93.30;;;;;;5073450;28;20444;-50
2023/03/22 12:39:07;;;;;;;5.70;5.00;;;18.50;93.70;;;;;;5072823;28;20433;-50
2023/03/22 12:41:39;;;;;;;6.53;5.20;;;18.00;93.60;;;;;;5072942;28;20429;-50
2023/03/22 12:44:13;;;;;;;7.80;5.70;;;17.80;93.50;;;;;;5072786;28;20547;-51
2023/03/22 12:46:48;;;;;;;8.70;5.37;;;17.90;93.40;;;;;;5072401;28;20441;-51
2023/03/22 12:49:20;;;;;;;8.10;6.03;;;;;;;;;;5072616;28;20472;-50
2023/03/22 12:51:48;;;;;;;6.80;6.10;;;18.20;93.70;;;;;;5072444;28;20433;-50
2023/03/22 12:54:18;;;;;;;9.50;4.90;;;17.90;93.90;;;;;;5072430;28;21012;-52
2023/03/22 12:56:47;;;;;;;9.13;5.77;;;;;;;;;;5072641;28;20860;-50
2023/03/22 12:59:17;;;;;;;8.43;5.57;;;;;;;;;;5071903;28;20937;-51